Rock Creek, MN (55067)

10:53 PM CDT on July 23, 2016 (GMT -0500)
Rush City Regional | | Change Station

Elev 922 ft 45.70 °N, 92.95 °W | Updated 20 minutes ago

Overcast
Overcast
71 °F
Feels Like 71 °F
N
4
Wind Variable Wind from SE

Today
High -- | Low -- °F
--% Chance of Precip.
Yesterday
High -- | Low -- °F
Precip. -- in
Pressure 29.80 in
Visibility 10.0 miles
Clouds Overcast 1900 ft
Dew Point 69 °F
Humidity 93%
Rainfall 1.55 in
Snow Depth Not available.
5:45 AM 8:50 PM
Waning Gibbous, 80% visible
METAR KROS 240333Z AUTO 14003KT 10SM OVC019 22/21 A2980 RMK AO2 T02170205
Pressure 29.80 in
Visibility 10.0 miles
Clouds Overcast 1900 ft
Dew Point 69 °F
Humidity 93%
Rainfall 1.55 in
Snow Depth Not available.
5:45 AM 8:50 PM
Waning Gibbous, 80% visible
METAR KROS 240333Z AUTO 14003KT 10SM OVC019 22/21 A2980 RMK AO2 T02170205

10-Day Weather Forecast

Almanac

Astronomy

Jul. 23, 2016 Rise Set
Actual Time
Civil Twilight
Nautical Twilight
Astronomical Twilight
Moon
Length of Visible Light
Length of Day
Tomorrow will be .
, % of the Moon is Illuminated

Today's Extremes

State Highs State Lows

Community

WunderPhotos

Upload Photos

1,927,022 photos uploaded!

WunderBlog® & News

Nearby

Air Quality

  Air Quality AQ Index Pollutant
Not available.

Snow Depth

Station Depth Elevation

Earthquake Activity

City Distance Mag. Time & Date
Minimum magnitude displayed is 2.5.

Coastal Water Temperatures

Place Temperature

Stations

Nearby Weather Stations

Station Location Temp. Windchill Dew Point Humidity Wind Precip. Elev Updated Type
                   

Watches & Warnings

There are currently no watches in effect.